createdAt,value
2019-03-31T00:00:11.098Z,987.73
2019-03-31T00:01:11.068Z,987.77
2019-03-31T00:02:11.041Z,987.74
2019-03-31T00:03:11.003Z,987.71
2019-03-31T00:04:10.940Z,987.70
2019-03-31T00:05:10.939Z,987.71
2019-03-31T00:06:10.885Z,987.73
2019-03-31T00:07:10.845Z,987.75
2019-03-31T00:08:10.812Z,987.72
2019-03-31T00:09:10.754Z,987.70
2019-03-31T00:10:10.775Z,987.74
2019-03-31T00:11:10.717Z,987.77
2019-03-31T00:12:10.650Z,987.75
2019-03-31T00:13:10.605Z,987.78
2019-03-31T00:14:10.547Z,987.74
2019-03-31T00:15:10.538Z,987.76
2019-03-31T00:16:10.485Z,987.77
2019-03-31T00:17:10.441Z,987.76
2019-03-31T00:18:10.403Z,987.76
2019-03-31T00:19:10.426Z,987.70
2019-03-31T00:20:10.349Z,987.74
2019-03-31T00:21:10.267Z,987.70
2019-03-31T00:22:10.265Z,987.70
2019-03-31T00:23:10.201Z,987.72
2019-03-31T00:24:10.171Z,987.73
2019-03-31T00:25:10.138Z,987.66
2019-03-31T00:26:10.067Z,987.70
2019-03-31T00:27:10.039Z,987.71
2019-03-31T00:28:10.029Z,987.69
2019-03-31T00:29:09.993Z,987.65
2019-03-31T00:30:10.033Z,987.66
2019-03-31T00:31:21.585Z,987.66
2019-03-31T00:32:09.842Z,987.67
2019-03-31T00:33:09.808Z,987.70
2019-03-31T00:34:09.775Z,987.63
2019-03-31T00:35:09.723Z,987.66
2019-03-31T00:36:09.724Z,987.65
2019-03-31T00:37:09.695Z,987.69
2019-03-31T00:38:09.631Z,987.68
2019-03-31T00:39:09.575Z,987.68
2019-03-31T00:40:09.523Z,987.68
2019-03-31T00:41:09.505Z,987.66
2019-03-31T00:42:09.437Z,987.66
2019-03-31T00:43:09.415Z,987.68
2019-03-31T00:44:09.379Z,987.68
2019-03-31T00:45:09.323Z,987.67
2019-03-31T00:46:09.288Z,987.68
2019-03-31T00:47:09.274Z,987.67
2019-03-31T00:48:09.232Z,987.67
2019-03-31T00:49:09.304Z,987.65
2019-03-31T00:50:09.115Z,987.66
2019-03-31T00:51:09.089Z,987.65
2019-03-31T00:52:09.066Z,987.65
2019-03-31T00:53:09.111Z,987.71
2019-03-31T00:54:09.001Z,987.72
2019-03-31T00:55:08.918Z,987.71
2019-03-31T00:56:08.875Z,987.71
2019-03-31T00:57:08.827Z,987.67
2019-03-31T00:58:08.805Z,987.65
2019-03-31T00:59:08.771Z,987.65
2019-03-31T01:00:08.712Z,987.67
2019-03-31T01:01:08.750Z,987.68
2019-03-31T01:02:08.646Z,987.69
2019-03-31T01:03:08.616Z,987.69
2019-03-31T01:04:08.589Z,987.72
2019-03-31T01:05:08.550Z,987.70
2019-03-31T01:06:08.507Z,987.72
2019-03-31T01:07:08.442Z,987.74
2019-03-31T01:08:08.428Z,987.71
2019-03-31T01:09:08.354Z,987.68
2019-03-31T01:10:08.309Z,987.68
2019-03-31T01:11:08.283Z,987.67
2019-03-31T01:12:08.252Z,987.70
2019-03-31T01:13:08.216Z,987.71
2019-03-31T01:14:08.871Z,987.69
2019-03-31T01:15:08.114Z,987.72
2019-03-31T01:16:08.065Z,987.75
2019-03-31T01:17:08.045Z,987.74
2019-03-31T01:18:08.004Z,987.72
2019-03-31T01:19:07.977Z,987.74
2019-03-31T01:20:07.921Z,987.73
2019-03-31T01:21:07.877Z,987.76
2019-03-31T01:22:07.842Z,987.74
2019-03-31T01:23:07.794Z,987.78
2019-03-31T01:24:07.747Z,987.76
2019-03-31T01:25:07.739Z,987.75
2019-03-31T01:26:07.685Z,987.77
2019-03-31T01:27:07.625Z,987.75
2019-03-31T01:28:07.594Z,987.76
2019-03-31T01:29:07.548Z,987.77
2019-03-31T01:30:07.539Z,987.78
2019-03-31T01:31:07.463Z,987.77
2019-03-31T01:32:07.442Z,987.80
2019-03-31T01:33:07.378Z,987.74
2019-03-31T01:34:07.375Z,987.70
2019-03-31T01:35:07.312Z,987.74
2019-03-31T01:36:07.265Z,987.74
2019-03-31T01:37:07.230Z,987.75
2019-03-31T01:38:07.885Z,987.75
2019-03-31T01:39:07.151Z,987.73
2019-03-31T01:40:07.127Z,987.72
2019-03-31T01:41:07.070Z,987.70
2019-03-31T01:42:07.050Z,987.71
2019-03-31T01:43:06.977Z,987.71
2019-03-31T01:44:06.950Z,987.69
2019-03-31T01:45:06.932Z,987.70
2019-03-31T01:46:06.899Z,987.71
2019-03-31T01:47:06.838Z,987.68
2019-03-31T01:48:06.800Z,987.67
2019-03-31T01:49:06.790Z,987.64
2019-03-31T01:50:06.733Z,987.65
2019-03-31T01:51:06.695Z,987.63
2019-03-31T01:52:06.636Z,987.65
2019-03-31T01:53:06.595Z,987.65
2019-03-31T01:54:06.541Z,987.67
2019-03-31T01:55:06.495Z,987.68
2019-03-31T01:56:06.501Z,987.68
2019-03-31T01:57:06.415Z,987.70
2019-03-31T01:58:06.575Z,987.66
2019-03-31T01:59:06.363Z,987.65
2019-03-31T02:00:06.312Z,987.68
2019-03-31T02:01:06.891Z,987.68
2019-03-31T02:02:06.228Z,987.66
2019-03-31T02:03:06.233Z,987.69
2019-03-31T02:04:06.156Z,987.74
2019-03-31T02:05:06.100Z,987.70
2019-03-31T02:06:06.088Z,987.68
2019-03-31T02:07:06.024Z,987.71
2019-03-31T02:08:05.978Z,987.73
2019-03-31T02:09:05.949Z,987.72
2019-03-31T02:10:05.892Z,987.72
2019-03-31T02:11:05.855Z,987.70
2019-03-31T02:12:05.851Z,987.72
2019-03-31T02:13:05.792Z,987.70
2019-03-31T02:14:05.789Z,987.73
2019-03-31T02:15:05.733Z,987.72
2019-03-31T02:16:05.663Z,987.73
2019-03-31T02:17:05.625Z,987.71
2019-03-31T02:18:05.587Z,987.72
2019-03-31T02:19:05.547Z,987.71
2019-03-31T02:20:05.512Z,987.68
2019-03-31T02:21:05.464Z,987.66
2019-03-31T02:22:05.431Z,987.67
2019-03-31T02:23:05.415Z,987.64
2019-03-31T02:24:05.348Z,987.61
2019-03-31T02:25:05.317Z,987.63
2019-03-31T02:26:05.257Z,987.62
2019-03-31T02:27:05.218Z,987.63
2019-03-31T02:28:05.213Z,987.67
2019-03-31T02:29:05.137Z,987.64
2019-03-31T02:30:05.111Z,987.60
2019-03-31T02:31:05.051Z,987.62
2019-03-31T02:32:22.093Z,987.62
2019-03-31T02:33:05.024Z,987.61
2019-03-31T02:34:04.951Z,987.58
2019-03-31T02:35:04.911Z,987.57
2019-03-31T02:36:04.903Z,987.55
2019-03-31T02:37:04.820Z,987.54
2019-03-31T02:38:04.786Z,987.55
2019-03-31T02:39:04.743Z,987.51
2019-03-31T02:40:04.721Z,987.53
2019-03-31T02:41:04.657Z,987.55
2019-03-31T02:42:04.604Z,987.57
2019-03-31T02:43:04.607Z,987.58
2019-03-31T02:44:04.532Z,987.58
2019-03-31T02:45:04.494Z,987.60
2019-03-31T02:46:04.444Z,987.53
2019-03-31T02:47:04.423Z,987.53
2019-03-31T02:48:04.387Z,987.51
2019-03-31T02:49:04.360Z,987.48
2019-03-31T02:50:04.302Z,987.46
2019-03-31T02:51:04.269Z,987.49
2019-03-31T02:52:04.206Z,987.47
2019-03-31T02:53:04.180Z,987.50
2019-03-31T02:54:04.193Z,987.47
2019-03-31T02:55:04.087Z,987.50
2019-03-31T02:56:04.059Z,987.49
2019-03-31T02:57:04.107Z,987.46
2019-03-31T02:58:03.994Z,987.47
2019-03-31T02:59:03.952Z,987.46
2019-03-31T03:00:03.919Z,987.44
2019-03-31T03:01:03.862Z,987.40
2019-03-31T03:02:03.820Z,987.36
2019-03-31T03:03:03.797Z,987.41
2019-03-31T03:04:07.733Z,987.40
2019-03-31T03:05:17.699Z,987.39
2019-03-31T03:06:03.729Z,987.40
2019-03-31T03:07:03.619Z,987.41
2019-03-31T03:08:03.563Z,987.41
2019-03-31T03:09:03.528Z,987.43
2019-03-31T03:10:03.473Z,987.40
2019-03-31T03:11:03.454Z,987.44
2019-03-31T03:12:03.411Z,987.44
2019-03-31T03:13:03.364Z,987.44
2019-03-31T03:14:03.355Z,987.43
2019-03-31T03:15:03.287Z,987.45
2019-03-31T03:16:03.341Z,987.47
2019-03-31T03:17:03.244Z,987.48
2019-03-31T03:18:03.166Z,987.45
2019-03-31T03:19:03.152Z,987.46
2019-03-31T03:20:03.067Z,987.42
2019-03-31T03:21:03.046Z,987.47
2019-03-31T03:22:02.998Z,987.50
2019-03-31T03:23:02.989Z,987.52
2019-03-31T03:24:02.955Z,987.55
2019-03-31T03:25:02.929Z,987.50
2019-03-31T03:26:02.859Z,987.52
2019-03-31T03:27:03.405Z,987.49
2019-03-31T03:28:02.775Z,987.52
2019-03-31T03:29:02.698Z,987.51
2019-03-31T03:30:02.710Z,987.52
2019-03-31T03:31:03.009Z,987.56
2019-03-31T03:32:02.640Z,987.50
2019-03-31T03:33:14.964Z,987.50
2019-03-31T03:34:02.504Z,987.53
2019-03-31T03:35:02.471Z,987.51
2019-03-31T03:36:02.456Z,987.51
2019-03-31T03:37:02.384Z,987.52
2019-03-31T03:38:02.347Z,987.52
2019-03-31T03:39:02.293Z,987.56
2019-03-31T03:40:02.289Z,987.55
2019-03-31T03:41:02.226Z,987.49
2019-03-31T03:42:02.256Z,987.53
2019-03-31T03:43:02.176Z,987.53
2019-03-31T03:44:02.807Z,987.53
2019-03-31T03:45:02.129Z,987.50
2019-03-31T03:46:02.159Z,987.51
2019-03-31T03:47:02.909Z,987.54
2019-03-31T03:48:02.912Z,987.51
2019-03-31T03:49:01.956Z,987.51
2019-03-31T03:50:01.881Z,987.54
2019-03-31T03:51:01.812Z,987.56
2019-03-31T03:52:01.756Z,987.59
2019-03-31T03:53:01.736Z,987.59
2019-03-31T03:54:01.738Z,987.60
2019-03-31T03:55:01.645Z,987.59
2019-03-31T03:56:01.653Z,987.61
2019-03-31T03:57:01.594Z,987.58
2019-03-31T03:58:01.518Z,987.62
2019-03-31T03:59:01.468Z,987.61
2019-03-31T04:00:01.461Z,987.60
2019-03-31T04:01:01.389Z,987.63
2019-03-31T04:02:01.407Z,987.57
2019-03-31T04:03:01.307Z,987.62
2019-03-31T04:04:01.303Z,987.61
2019-03-31T04:05:01.264Z,987.64
2019-03-31T04:06:01.208Z,987.62
2019-03-31T04:07:01.167Z,987.64
2019-03-31T04:08:01.147Z,987.63
2019-03-31T04:09:01.158Z,987.64
2019-03-31T04:10:01.068Z,987.65
2019-03-31T04:11:01.011Z,987.66
2019-03-31T04:12:00.960Z,987.68
2019-03-31T04:13:00.927Z,987.68
2019-03-31T04:14:00.865Z,987.64
2019-03-31T04:15:00.836Z,987.66
2019-03-31T04:16:00.817Z,987.63
2019-03-31T04:17:00.751Z,987.64
2019-03-31T04:18:00.711Z,987.67
2019-03-31T04:19:01.417Z,987.63
2019-03-31T04:20:00.653Z,987.67
2019-03-31T04:21:00.639Z,987.66
2019-03-31T04:22:00.600Z,987.62
2019-03-31T04:23:00.500Z,987.67
2019-03-31T04:24:00.474Z,987.69
2019-03-31T04:25:00.724Z,987.68
2019-03-31T04:26:00.440Z,987.68
2019-03-31T04:27:00.325Z,987.70
2019-03-31T04:28:00.287Z,987.68
2019-03-31T04:29:00.245Z,987.65
2019-03-31T04:30:00.753Z,987.68
2019-03-31T04:31:00.158Z,987.64
2019-03-31T04:32:00.130Z,987.66
2019-03-31T04:33:00.116Z,987.67
2019-03-31T04:34:00.071Z,987.60
2019-03-31T04:35:00.004Z,987.62
2019-03-31T04:35:59.952Z,987.64
2019-03-31T04:36:59.920Z,987.65
2019-03-31T04:37:59.909Z,987.65
2019-03-31T04:39:00.476Z,987.66
2019-03-31T04:39:59.796Z,987.64
2019-03-31T04:40:59.829Z,987.68
2019-03-31T04:41:59.731Z,987.67
2019-03-31T04:42:59.670Z,987.70
2019-03-31T04:43:59.624Z,987.70
2019-03-31T04:44:59.598Z,987.74
2019-03-31T04:45:59.543Z,987.69
2019-03-31T04:46:59.538Z,987.73
2019-03-31T04:47:59.479Z,987.70
2019-03-31T04:48:59.489Z,987.74
2019-03-31T04:49:59.386Z,987.78
2019-03-31T04:50:59.374Z,987.73
2019-03-31T04:51:59.293Z,987.74
2019-03-31T04:52:59.253Z,987.74
2019-03-31T04:53:59.225Z,987.75
2019-03-31T04:54:59.176Z,987.76
2019-03-31T04:55:59.147Z,987.75
2019-03-31T04:56:59.094Z,987.76
2019-03-31T04:57:59.154Z,987.77
2019-03-31T04:58:59.003Z,987.79
2019-03-31T04:59:58.961Z,987.79
2019-03-31T05:00:58.915Z,987.77
2019-03-31T05:01:58.898Z,987.78
2019-03-31T05:02:58.865Z,987.80
2019-03-31T05:04:05.011Z,987.76
2019-03-31T05:04:58.760Z,987.77
2019-03-31T05:05:58.757Z,987.79
2019-03-31T05:06:58.687Z,987.81
2019-03-31T05:07:58.645Z,987.79
2019-03-31T05:08:58.625Z,987.83
2019-03-31T05:09:58.606Z,987.82
2019-03-31T05:10:58.530Z,987.86
2019-03-31T05:11:58.477Z,987.88
2019-03-31T05:12:58.462Z,987.88
2019-03-31T05:13:58.385Z,987.92
2019-03-31T05:14:58.405Z,987.91
2019-03-31T05:15:58.309Z,987.91
2019-03-31T05:16:58.337Z,987.88
2019-03-31T05:17:58.223Z,987.93
2019-03-31T05:18:58.202Z,987.90
2019-03-31T05:19:58.153Z,987.91
2019-03-31T05:20:58.144Z,987.93
2019-03-31T05:21:58.066Z,987.95
2019-03-31T05:22:58.016Z,987.98
2019-03-31T05:23:57.977Z,987.98
2019-03-31T05:24:57.960Z,987.99
2019-03-31T05:25:57.912Z,988.01
2019-03-31T05:26:57.854Z,988.02
2019-03-31T05:27:57.810Z,988.01
2019-03-31T05:28:57.765Z,988.02
2019-03-31T05:29:57.731Z,988.02
2019-03-31T05:30:57.729Z,988.04
2019-03-31T05:31:57.643Z,988.02
2019-03-31T05:32:57.612Z,987.99
2019-03-31T05:33:57.565Z,987.99
2019-03-31T05:34:57.528Z,988.03
2019-03-31T05:35:57.489Z,988.03
2019-03-31T05:36:57.444Z,988.11
2019-03-31T05:37:57.396Z,988.16
2019-03-31T05:38:57.357Z,988.18
2019-03-31T05:39:57.330Z,988.18
2019-03-31T05:40:57.282Z,988.22
2019-03-31T05:41:57.268Z,988.21
2019-03-31T05:42:57.211Z,988.25
2019-03-31T05:44:05.536Z,988.21
2019-03-31T05:44:57.163Z,988.27
2019-03-31T05:45:57.072Z,988.27
2019-03-31T05:46:57.089Z,988.31
2019-03-31T05:47:57.001Z,988.35
2019-03-31T05:48:56.970Z,988.38
2019-03-31T05:49:56.898Z,988.37
2019-03-31T05:50:56.915Z,988.39
2019-03-31T05:51:56.834Z,988.41
2019-03-31T05:52:56.808Z,988.43
2019-03-31T05:53:56.790Z,988.41
2019-03-31T05:54:56.800Z,988.43
2019-03-31T05:55:56.730Z,988.42
2019-03-31T05:56:56.674Z,988.40
2019-03-31T05:57:56.619Z,988.38
2019-03-31T05:58:56.524Z,988.37
2019-03-31T05:59:56.546Z,988.42
2019-03-31T06:00:56.473Z,988.41
2019-03-31T06:01:56.464Z,988.43
2019-03-31T06:02:56.375Z,988.42
2019-03-31T06:03:56.357Z,988.43
2019-03-31T06:04:56.288Z,988.43
2019-03-31T06:05:56.284Z,988.45
2019-03-31T06:06:56.216Z,988.44
2019-03-31T06:07:56.206Z,988.44
2019-03-31T06:08:56.143Z,988.48
2019-03-31T06:09:56.084Z,988.44
2019-03-31T06:10:56.097Z,988.41
2019-03-31T06:11:56.037Z,988.41
2019-03-31T06:12:55.986Z,988.39
2019-03-31T06:13:55.939Z,988.45
2019-03-31T06:14:55.920Z,988.42
2019-03-31T06:15:55.860Z,988.42
2019-03-31T06:16:55.810Z,988.45
2019-03-31T06:17:55.855Z,988.46
2019-03-31T06:18:55.786Z,988.48
2019-03-31T06:19:55.704Z,988.50
2019-03-31T06:20:55.678Z,988.49
2019-03-31T06:21:55.718Z,988.45
2019-03-31T06:22:55.594Z,988.49
2019-03-31T06:23:55.558Z,988.51
2019-03-31T06:24:55.496Z,988.52
2019-03-31T06:25:55.480Z,988.51
2019-03-31T06:26:55.587Z,988.53
2019-03-31T06:27:55.390Z,988.53
2019-03-31T06:28:55.365Z,988.56
2019-03-31T06:29:55.496Z,988.55
2019-03-31T06:30:55.269Z,988.52
2019-03-31T06:31:55.236Z,988.55
2019-03-31T06:32:55.549Z,988.53
2019-03-31T06:33:55.163Z,988.54
2019-03-31T06:34:55.093Z,988.57
2019-03-31T06:35:55.105Z,988.59
2019-03-31T06:36:55.046Z,988.60
2019-03-31T06:37:54.996Z,988.61
2019-03-31T06:38:54.974Z,988.65
2019-03-31T06:39:54.936Z,988.63
2019-03-31T06:40:54.878Z,988.60
2019-03-31T06:41:54.826Z,988.56
2019-03-31T06:42:54.819Z,988.61
2019-03-31T06:43:54.766Z,988.63
2019-03-31T06:44:54.722Z,988.62
2019-03-31T06:45:54.730Z,988.62
2019-03-31T06:46:54.664Z,988.65
2019-03-31T06:47:54.628Z,988.65
2019-03-31T06:48:54.575Z,988.62
2019-03-31T06:49:54.622Z,988.62
2019-03-31T06:50:54.514Z,988.62
2019-03-31T06:51:54.503Z,988.63
2019-03-31T06:52:54.443Z,988.64
2019-03-31T06:53:54.386Z,988.67
2019-03-31T06:54:54.346Z,988.66
2019-03-31T06:55:54.329Z,988.70
2019-03-31T06:56:54.278Z,988.69
2019-03-31T06:57:54.231Z,988.78
2019-03-31T06:58:54.198Z,988.81
2019-03-31T06:59:54.167Z,988.84
2019-03-31T07:00:54.137Z,988.86
2019-03-31T07:01:54.157Z,988.88
2019-03-31T07:02:54.065Z,988.87
2019-03-31T07:03:54.043Z,988.88
2019-03-31T07:05:00.818Z,988.90
2019-03-31T07:05:53.970Z,988.91
2019-03-31T07:06:53.962Z,988.93
2019-03-31T07:07:53.919Z,988.93
2019-03-31T07:08:53.864Z,988.95
2019-03-31T07:09:53.855Z,988.97
2019-03-31T07:10:53.832Z,988.98
2019-03-31T07:11:53.780Z,988.96
2019-03-31T07:12:53.739Z,988.95
2019-03-31T07:13:53.705Z,988.95
2019-03-31T07:14:53.694Z,988.97
2019-03-31T07:15:53.647Z,988.97
2019-03-31T07:16:53.641Z,989.00
2019-03-31T07:17:53.632Z,988.98
2019-03-31T07:18:53.566Z,988.96
2019-03-31T07:19:53.524Z,988.96
2019-03-31T07:20:53.528Z,989.01
2019-03-31T07:21:53.548Z,989.04
2019-03-31T07:22:53.461Z,989.10
2019-03-31T07:23:53.436Z,989.06
2019-03-31T07:24:53.422Z,989.06
2019-03-31T07:25:53.393Z,989.08
2019-03-31T07:26:53.360Z,989.04
2019-03-31T07:27:53.327Z,989.02
2019-03-31T07:28:55.077Z,989.02
2019-03-31T07:29:53.272Z,989.04
2019-03-31T07:30:53.267Z,989.08
2019-03-31T07:31:53.310Z,989.06
2019-03-31T07:32:53.178Z,989.09
2019-03-31T07:33:53.177Z,989.04
2019-03-31T07:34:53.117Z,989.07
2019-03-31T07:35:53.098Z,989.08
2019-03-31T07:36:53.074Z,989.08
2019-03-31T07:37:53.043Z,989.15
2019-03-31T07:38:53.192Z,989.12
2019-03-31T07:39:53.032Z,989.12
2019-03-31T07:40:53.344Z,989.16
2019-03-31T07:41:53.268Z,989.17
2019-03-31T07:42:53.137Z,989.24
2019-03-31T07:43:52.911Z,989.24
2019-03-31T07:44:52.920Z,989.22
2019-03-31T07:45:55.685Z,989.26
2019-03-31T07:46:52.850Z,989.28
2019-03-31T07:47:52.819Z,989.31
2019-03-31T07:48:52.794Z,989.28
2019-03-31T07:49:52.768Z,989.31
2019-03-31T07:50:52.746Z,989.30
2019-03-31T07:51:52.740Z,989.29
2019-03-31T07:52:52.710Z,989.29
2019-03-31T07:53:52.715Z,989.30
2019-03-31T07:54:52.635Z,989.29
2019-03-31T07:55:52.607Z,989.27
2019-03-31T07:56:53.190Z,989.31
2019-03-31T07:57:54.538Z,989.32
2019-03-31T07:58:52.607Z,989.33
2019-03-31T07:59:52.517Z,989.35
2019-03-31T08:00:52.526Z,989.35
2019-03-31T08:01:52.462Z,989.37
2019-03-31T08:02:52.458Z,989.36
2019-03-31T08:03:52.432Z,989.40
2019-03-31T08:04:52.401Z,989.40
2019-03-31T08:05:52.393Z,989.43
2019-03-31T08:06:52.367Z,989.45
2019-03-31T08:07:52.337Z,989.46
2019-03-31T08:08:53.469Z,989.46
2019-03-31T08:09:52.316Z,989.48
2019-03-31T08:10:52.259Z,989.51
2019-03-31T08:11:52.237Z,989.52
2019-03-31T08:12:52.269Z,989.50
2019-03-31T08:13:55.124Z,989.49
2019-03-31T08:14:52.192Z,989.54
2019-03-31T08:15:52.153Z,989.56
2019-03-31T08:16:52.158Z,989.56
2019-03-31T08:17:52.092Z,989.55
2019-03-31T08:18:52.151Z,989.55
2019-03-31T08:19:52.079Z,989.54
2019-03-31T08:20:52.164Z,989.61
2019-03-31T08:21:52.166Z,989.57
2019-03-31T08:22:52.007Z,989.57
2019-03-31T08:23:51.988Z,989.57
2019-03-31T08:24:51.952Z,989.57
2019-03-31T08:25:51.958Z,989.55
2019-03-31T08:26:51.983Z,989.56
2019-03-31T08:27:51.879Z,989.55
2019-03-31T08:28:51.859Z,989.54
2019-03-31T08:30:00.137Z,989.53
2019-03-31T08:30:51.808Z,989.56
2019-03-31T08:31:51.789Z,989.58
2019-03-31T08:32:51.773Z,989.61
2019-03-31T08:33:51.728Z,989.62
2019-03-31T08:34:51.698Z,989.67
2019-03-31T08:35:51.669Z,989.64
2019-03-31T08:36:51.651Z,989.71
2019-03-31T08:37:51.627Z,989.70
2019-03-31T08:38:51.603Z,989.67
2019-03-31T08:39:51.640Z,989.73
2019-03-31T08:40:51.583Z,989.67
2019-03-31T08:41:51.541Z,989.69
2019-03-31T08:42:51.492Z,989.69
2019-03-31T08:43:51.490Z,989.68
2019-03-31T08:44:51.450Z,989.71
2019-03-31T08:45:51.439Z,989.73
2019-03-31T08:46:51.422Z,989.71
2019-03-31T08:47:51.391Z,989.71
2019-03-31T08:48:51.404Z,989.78
2019-03-31T08:49:51.334Z,989.82
2019-03-31T08:50:51.411Z,989.79
2019-03-31T08:51:51.299Z,989.79
2019-03-31T08:52:51.286Z,989.81
2019-03-31T08:53:51.289Z,989.81
2019-03-31T08:54:51.230Z,989.83
2019-03-31T08:55:51.208Z,989.82
2019-03-31T08:56:51.180Z,989.82
2019-03-31T08:57:51.219Z,989.85
2019-03-31T08:58:51.132Z,989.87
2019-03-31T08:59:51.130Z,989.91
2019-03-31T09:00:51.127Z,989.82
2019-03-31T09:01:51.077Z,989.84
2019-03-31T09:02:51.036Z,989.86
2019-03-31T09:03:51.021Z,989.87
2019-03-31T09:04:50.989Z,989.79
2019-03-31T09:06:01.711Z,989.81
2019-03-31T09:06:50.959Z,989.78
2019-03-31T09:07:50.953Z,989.81
2019-03-31T09:08:50.908Z,989.78
2019-03-31T09:09:50.881Z,989.79
2019-03-31T09:10:50.895Z,989.77
2019-03-31T09:11:51.526Z,989.86
2019-03-31T09:12:50.822Z,989.84
2019-03-31T09:13:50.838Z,989.86
2019-03-31T09:14:50.814Z,989.93
2019-03-31T09:15:50.766Z,989.85
2019-03-31T09:16:50.715Z,989.90
2019-03-31T09:17:54.011Z,989.89
2019-03-31T09:18:50.676Z,989.93
2019-03-31T09:19:50.681Z,989.91
2019-03-31T09:20:50.676Z,989.89
2019-03-31T09:21:50.621Z,989.87
2019-03-31T09:22:50.611Z,989.90
2019-03-31T09:23:50.591Z,989.84
2019-03-31T09:24:50.560Z,989.86
2019-03-31T09:25:50.531Z,989.90
2019-03-31T09:26:50.528Z,989.91
2019-03-31T09:27:50.493Z,989.90
2019-03-31T09:28:50.467Z,989.91
2019-03-31T09:29:50.435Z,989.94
2019-03-31T09:30:50.414Z,989.91
2019-03-31T09:31:50.390Z,989.95
2019-03-31T09:32:50.341Z,989.95
2019-03-31T09:33:50.333Z,989.99
2019-03-31T09:34:50.307Z,990.00
2019-03-31T09:35:50.291Z,990.01
2019-03-31T09:36:50.256Z,990.03
2019-03-31T09:37:50.222Z,989.97
2019-03-31T09:38:50.202Z,989.95
2019-03-31T09:39:50.178Z,989.99
2019-03-31T09:40:50.187Z,990.01
2019-03-31T09:41:50.136Z,990.03
2019-03-31T09:42:50.132Z,990.02
2019-03-31T09:43:50.128Z,990.02
2019-03-31T09:44:50.125Z,990.03
2019-03-31T09:45:50.112Z,990.03
2019-03-31T09:46:50.248Z,990.00
2019-03-31T09:47:50.011Z,989.99
2019-03-31T09:48:50.011Z,990.02
2019-03-31T09:49:49.948Z,990.06
2019-03-31T09:50:49.989Z,990.05
2019-03-31T09:51:49.929Z,990.10
2019-03-31T09:52:49.873Z,990.08
2019-03-31T09:53:49.851Z,990.11
2019-03-31T09:54:49.860Z,990.14
2019-03-31T09:55:49.801Z,990.14
2019-03-31T09:56:49.792Z,990.12
2019-03-31T09:57:49.764Z,990.11
2019-03-31T09:58:49.763Z,990.13
2019-03-31T09:59:49.751Z,990.15
2019-03-31T10:00:49.715Z,990.14
2019-03-31T10:01:49.693Z,990.21
2019-03-31T10:02:49.654Z,990.28
2019-03-31T10:03:49.627Z,989.94
2019-03-31T10:04:49.607Z,990.31
2019-03-31T10:05:49.592Z,990.25
2019-03-31T10:06:49.550Z,990.30
2019-03-31T10:07:49.537Z,990.23
2019-03-31T10:08:49.496Z,990.22
2019-03-31T10:09:49.493Z,990.25
2019-03-31T10:10:49.469Z,990.24
2019-03-31T10:11:49.428Z,990.28
2019-03-31T10:12:49.403Z,990.25
2019-03-31T10:13:49.361Z,990.26
2019-03-31T10:14:49.358Z,990.29
2019-03-31T10:15:49.336Z,990.23
2019-03-31T10:16:49.307Z,990.19
2019-03-31T10:17:49.284Z,990.14
2019-03-31T10:18:49.285Z,990.19
2019-03-31T10:19:49.297Z,990.16
2019-03-31T10:20:49.185Z,990.15
2019-03-31T10:21:49.165Z,990.19
2019-03-31T10:22:49.191Z,990.15
2019-03-31T10:23:49.112Z,990.21
2019-03-31T10:24:49.097Z,990.29
2019-03-31T10:25:49.060Z,990.29
2019-03-31T10:26:49.047Z,990.30
2019-03-31T10:27:49.125Z,990.28
2019-03-31T10:28:48.975Z,990.31
2019-03-31T10:29:48.967Z,990.28
2019-03-31T10:30:48.955Z,990.34
2019-03-31T10:31:48.938Z,990.37
2019-03-31T10:32:48.906Z,990.26
2019-03-31T10:33:48.878Z,990.29
2019-03-31T10:34:48.895Z,990.25
2019-03-31T10:35:48.830Z,990.26
2019-03-31T10:36:48.834Z,990.28
2019-03-31T10:37:48.831Z,990.25
2019-03-31T10:38:48.786Z,990.25
2019-03-31T10:39:48.742Z,990.26
2019-03-31T10:40:48.760Z,990.26
2019-03-31T10:41:48.661Z,990.34
2019-03-31T10:42:48.624Z,990.32
2019-03-31T10:43:48.643Z,990.30
2019-03-31T10:44:48.595Z,990.37
2019-03-31T10:45:48.621Z,990.35
2019-03-31T10:46:48.606Z,990.32
2019-03-31T10:47:48.533Z,990.31
2019-03-31T10:48:48.494Z,990.33
2019-03-31T10:49:48.476Z,990.33
2019-03-31T10:50:48.503Z,990.30
2019-03-31T10:51:48.399Z,990.30
2019-03-31T10:52:48.407Z,990.31
2019-03-31T10:53:48.349Z,990.32
2019-03-31T10:54:48.365Z,990.30
2019-03-31T10:55:48.288Z,990.41
2019-03-31T10:56:48.272Z,990.38
2019-03-31T10:57:48.254Z,990.37
2019-03-31T10:58:48.226Z,990.37
2019-03-31T10:59:48.189Z,990.35
2019-03-31T11:00:48.176Z,990.34
2019-03-31T11:01:48.173Z,990.36
2019-03-31T11:02:48.115Z,990.37
2019-03-31T11:03:48.205Z,990.37
2019-03-31T11:04:48.076Z,990.38
2019-03-31T11:05:48.098Z,990.31
2019-03-31T11:06:58.351Z,990.31
2019-03-31T11:07:48.040Z,990.35
2019-03-31T11:08:47.941Z,990.36
2019-03-31T11:09:47.930Z,990.34
2019-03-31T11:10:47.899Z,990.40
2019-03-31T11:11:47.912Z,990.44
2019-03-31T11:12:50.720Z,990.39
2019-03-31T11:13:47.820Z,990.39
2019-03-31T11:14:47.794Z,990.43
2019-03-31T11:15:47.756Z,990.43
2019-03-31T11:16:47.728Z,990.39
2019-03-31T11:17:47.698Z,990.42
2019-03-31T11:18:47.675Z,990.47
2019-03-31T11:19:47.650Z,990.50
2019-03-31T11:20:47.686Z,990.49
2019-03-31T11:21:47.595Z,990.52
2019-03-31T11:22:47.597Z,990.47
2019-03-31T11:23:47.632Z,990.45
2019-03-31T11:24:47.568Z,990.57
2019-03-31T11:25:47.520Z,990.54
2019-03-31T11:26:47.501Z,990.41
2019-03-31T11:27:47.470Z,990.53
2019-03-31T11:28:47.417Z,990.49
2019-03-31T11:29:47.383Z,990.49
2019-03-31T11:30:47.351Z,990.51
2019-03-31T11:31:47.338Z,990.43
2019-03-31T11:32:47.328Z,990.55
2019-03-31T11:33:47.381Z,990.50
2019-03-31T11:34:47.265Z,990.51
2019-03-31T11:35:47.373Z,990.51
2019-03-31T11:36:47.225Z,990.46
2019-03-31T11:37:47.192Z,990.43
2019-03-31T11:38:47.207Z,990.46
2019-03-31T11:39:47.138Z,990.46
2019-03-31T11:40:47.122Z,990.43
2019-03-31T11:41:47.085Z,990.44
2019-03-31T11:42:47.028Z,990.52
2019-03-31T11:43:46.991Z,990.43
2019-03-31T11:44:46.984Z,990.49
2019-03-31T11:45:47.039Z,990.50
2019-03-31T11:46:46.987Z,990.48
2019-03-31T11:47:47.082Z,990.47
2019-03-31T11:48:46.896Z,990.43
2019-03-31T11:49:46.858Z,990.55
2019-03-31T11:50:46.862Z,990.52
2019-03-31T11:51:46.776Z,990.48
2019-03-31T11:52:46.770Z,990.47
2019-03-31T11:53:46.735Z,990.48
2019-03-31T11:54:46.762Z,990.50
2019-03-31T11:55:46.710Z,990.47
2019-03-31T11:56:46.692Z,990.50
2019-03-31T11:57:46.647Z,990.52
2019-03-31T11:58:46.624Z,990.50
2019-03-31T11:59:49.535Z,990.53
2019-03-31T12:00:46.537Z,990.45
2019-03-31T12:01:46.522Z,990.43
2019-03-31T12:02:46.480Z,990.45
2019-03-31T12:03:46.453Z,990.41
2019-03-31T12:04:46.461Z,990.44
2019-03-31T12:05:46.403Z,990.41
2019-03-31T12:06:46.367Z,990.39
2019-03-31T12:07:47.482Z,990.38
2019-03-31T12:08:46.367Z,990.39
2019-03-31T12:09:46.318Z,990.37
2019-03-31T12:10:46.271Z,990.38
2019-03-31T12:11:46.285Z,990.36
2019-03-31T12:12:46.211Z,990.40
2019-03-31T12:13:46.200Z,990.38
2019-03-31T12:14:59.583Z,990.46
2019-03-31T12:15:46.145Z,990.38
2019-03-31T12:16:46.216Z,990.37
2019-03-31T12:17:46.100Z,990.37
2019-03-31T12:18:46.059Z,990.39
2019-03-31T12:19:48.741Z,990.33
2019-03-31T12:20:46.005Z,990.38
2019-03-31T12:21:45.990Z,990.34
2019-03-31T12:22:45.939Z,990.34
2019-03-31T12:23:45.947Z,990.39
2019-03-31T12:24:45.914Z,990.39
2019-03-31T12:25:46.019Z,990.42
2019-03-31T12:26:45.890Z,990.40
2019-03-31T12:27:45.993Z,990.41